sensor_id;sensor_type;location;lat;lon;timestamp;P1;durP1;ratioP1;P2;durP2;ratioP2
29728;SDS011;20055;51.498;11.960;2023-02-01T00:02:05;25.05;;;7.20;;
29728;SDS011;20055;51.498;11.960;2023-02-01T00:04:31;24.50;;;4.70;;
29728;SDS011;20055;51.498;11.960;2023-02-01T00:06:58;31.38;;;4.70;;
29728;SDS011;20055;51.498;11.960;2023-02-01T00:09:26;24.80;;;6.00;;
29728;SDS011;20055;51.498;11.960;2023-02-01T00:11:52;26.20;;;4.32;;
29728;SDS011;20055;51.498;11.960;2023-02-01T00:14:19;28.05;;;4.78;;
29728;SDS011;20055;51.498;11.960;2023-02-01T00:16:46;19.63;;;4.43;;
29728;SDS011;20055;51.498;11.960;2023-02-01T00:19:13;22.35;;;4.97;;
29728;SDS011;20055;51.498;11.960;2023-02-01T00:21:40;22.52;;;4.47;;
29728;SDS011;20055;51.498;11.960;2023-02-01T00:24:08;15.43;;;4.13;;
29728;SDS011;20055;51.498;11.960;2023-02-01T00:26:36;28.17;;;4.88;;
29728;SDS011;20055;51.498;11.960;2023-02-01T00:29:04;25.65;;;4.85;;
29728;SDS011;20055;51.498;11.960;2023-02-01T00:31:31;20.00;;;4.00;;
29728;SDS011;20055;51.498;11.960;2023-02-01T00:33:58;18.15;;;4.32;;
29728;SDS011;20055;51.498;11.960;2023-02-01T00:36:25;17.77;;;4.10;;
29728;SDS011;20055;51.498;11.960;2023-02-01T00:38:53;15.70;;;4.28;;
29728;SDS011;20055;51.498;11.960;2023-02-01T00:41:20;19.85;;;4.15;;
29728;SDS011;20055;51.498;11.960;2023-02-01T00:43:47;23.65;;;3.78;;
29728;SDS011;20055;51.498;11.960;2023-02-01T00:46:15;35.63;;;5.75;;
29728;SDS011;20055;51.498;11.960;2023-02-01T00:48:42;19.90;;;3.75;;
29728;SDS011;20055;51.498;11.960;2023-02-01T00:51:10;14.25;;;3.78;;
29728;SDS011;20055;51.498;11.960;2023-02-01T00:53:37;14.75;;;3.80;;
29728;SDS011;20055;51.498;11.960;2023-02-01T00:56:04;23.58;;;4.22;;
29728;SDS011;20055;51.498;11.960;2023-02-01T00:58:31;30.17;;;4.40;;
29728;SDS011;20055;51.498;11.960;2023-02-01T01:01:05;27.02;;;4.40;;
29728;SDS011;20055;51.498;11.960;2023-02-01T01:03:32;20.02;;;3.80;;
29728;SDS011;20055;51.498;11.960;2023-02-01T01:06:00;17.30;;;3.95;;
29728;SDS011;20055;51.498;11.960;2023-02-01T01:08:27;31.13;;;4.80;;
29728;SDS011;20055;51.498;11.960;2023-02-01T01:10:54;39.83;;;3.97;;
29728;SDS011;20055;51.498;11.960;2023-02-01T01:13:21;20.98;;;3.35;;
29728;SDS011;20055;51.498;11.960;2023-02-01T01:15:47;24.92;;;4.43;;
29728;SDS011;20055;51.498;11.960;2023-02-01T01:18:14;25.98;;;4.50;;
29728;SDS011;20055;51.498;11.960;2023-02-01T01:20:41;19.83;;;4.90;;
29728;SDS011;20055;51.498;11.960;2023-02-01T01:23:08;18.65;;;3.40;;
29728;SDS011;20055;51.498;11.960;2023-02-01T01:25:38;17.60;;;4.85;;
29728;SDS011;20055;51.498;11.960;2023-02-01T01:30:31;28.77;;;3.95;;
29728;SDS011;20055;51.498;11.960;2023-02-01T01:32:58;27.15;;;3.88;;
29728;SDS011;20055;51.498;11.960;2023-02-01T01:35:24;35.00;;;5.22;;
29728;SDS011;20055;51.498;11.960;2023-02-01T01:37:51;22.48;;;4.18;;
29728;SDS011;20055;51.498;11.960;2023-02-01T01:40:18;19.80;;;5.00;;
29728;SDS011;20055;51.498;11.960;2023-02-01T01:42:44;24.25;;;5.85;;
29728;SDS011;20055;51.498;11.960;2023-02-01T01:47:52;21.05;;;4.35;;
29728;SDS011;20055;51.498;11.960;2023-02-01T01:50:23;24.67;;;4.03;;
29728;SDS011;20055;51.498;11.960;2023-02-01T01:52:51;29.23;;;4.20;;
29728;SDS011;20055;51.498;11.960;2023-02-01T01:55:19;39.60;;;5.03;;
29728;SDS011;20055;51.498;11.960;2023-02-01T01:57:48;23.52;;;4.15;;
29728;SDS011;20055;51.498;11.960;2023-02-01T02:00:16;25.95;;;4.75;;
29728;SDS011;20055;51.498;11.960;2023-02-01T02:02:46;27.13;;;4.65;;
29728;SDS011;20055;51.498;11.960;2023-02-01T02:05:14;17.35;;;5.03;;
29728;SDS011;20055;51.498;11.960;2023-02-01T02:07:41;26.25;;;4.28;;
29728;SDS011;20055;51.498;11.960;2023-02-01T02:10:11;31.00;;;4.88;;
29728;SDS011;20055;51.498;11.960;2023-02-01T02:12:38;32.22;;;6.32;;
29728;SDS011;20055;51.498;11.960;2023-02-01T02:15:06;30.65;;;4.80;;
29728;SDS011;20055;51.498;11.960;2023-02-01T02:20:53;30.33;;;5.13;;
29728;SDS011;20055;51.498;11.960;2023-02-01T02:29:39;38.50;;;5.32;;
29728;SDS011;20055;51.498;11.960;2023-02-01T02:34:24;32.17;;;5.13;;
29728;SDS011;20055;51.498;11.960;2023-02-01T02:36:59;35.50;;;4.53;;
29728;SDS011;20055;51.498;11.960;2023-02-01T02:44:54;32.65;;;6.38;;
29728;SDS011;20055;51.498;11.960;2023-02-01T02:50:28;22.67;;;4.25;;
29728;SDS011;20055;51.498;11.960;2023-02-01T02:53:15;30.17;;;4.45;;
29728;SDS011;20055;51.498;11.960;2023-02-01T02:56:02;24.40;;;5.32;;
29728;SDS011;20055;51.498;11.960;2023-02-01T02:58:48;28.05;;;5.13;;
29728;SDS011;20055;51.498;11.960;2023-02-01T03:01:33;33.78;;;4.30;;
29728;SDS011;20055;51.498;11.960;2023-02-01T03:04:19;30.83;;;5.25;;
29728;SDS011;20055;51.498;11.960;2023-02-01T03:06:48;22.85;;;4.82;;
29728;SDS011;20055;51.498;11.960;2023-02-01T03:09:31;18.33;;;4.45;;
29728;SDS011;20055;51.498;11.960;2023-02-01T03:12:03;32.17;;;5.90;;
29728;SDS011;20055;51.498;11.960;2023-02-01T03:14:52;33.88;;;7.25;;
29728;SDS011;20055;51.498;11.960;2023-02-01T03:17:21;29.60;;;4.78;;
29728;SDS011;20055;51.498;11.960;2023-02-01T03:19:48;31.00;;;5.60;;
29728;SDS011;20055;51.498;11.960;2023-02-01T03:22:20;26.92;;;4.28;;
29728;SDS011;20055;51.498;11.960;2023-02-01T03:24:49;29.98;;;4.93;;
29728;SDS011;20055;51.498;11.960;2023-02-01T03:27:21;29.15;;;4.63;;
29728;SDS011;20055;51.498;11.960;2023-02-01T03:32:17;27.25;;;5.03;;
29728;SDS011;20055;51.498;11.960;2023-02-01T03:34:43;28.48;;;4.32;;
29728;SDS011;20055;51.498;11.960;2023-02-01T03:37:12;21.63;;;4.07;;
29728;SDS011;20055;51.498;11.960;2023-02-01T03:39:45;20.55;;;4.45;;
29728;SDS011;20055;51.498;11.960;2023-02-01T03:42:16;32.28;;;5.47;;
29728;SDS011;20055;51.498;11.960;2023-02-01T03:44:55;22.23;;;5.22;;
29728;SDS011;20055;51.498;11.960;2023-02-01T03:47:25;20.92;;;4.95;;
29728;SDS011;20055;51.498;11.960;2023-02-01T03:49:55;34.60;;;4.57;;
29728;SDS011;20055;51.498;11.960;2023-02-01T03:52:36;31.42;;;5.20;;
29728;SDS011;20055;51.498;11.960;2023-02-01T03:55:05;32.92;;;4.80;;
29728;SDS011;20055;51.498;11.960;2023-02-01T03:57:34;36.45;;;4.93;;
29728;SDS011;20055;51.498;11.960;2023-02-01T04:00:21;32.55;;;4.65;;
29728;SDS011;20055;51.498;11.960;2023-02-01T04:02:49;29.63;;;4.78;;
29728;SDS011;20055;51.498;11.960;2023-02-01T04:05:16;36.58;;;6.10;;
29728;SDS011;20055;51.498;11.960;2023-02-01T04:07:51;22.40;;;5.20;;
29728;SDS011;20055;51.498;11.960;2023-02-01T04:10:18;33.30;;;5.35;;
29728;SDS011;20055;51.498;11.960;2023-02-01T04:12:44;26.65;;;4.68;;
29728;SDS011;20055;51.498;11.960;2023-02-01T04:15:11;33.90;;;5.60;;
29728;SDS011;20055;51.498;11.960;2023-02-01T04:17:37;38.17;;;4.82;;
29728;SDS011;20055;51.498;11.960;2023-02-01T04:20:04;27.08;;;4.93;;
29728;SDS011;20055;51.498;11.960;2023-02-01T04:22:31;23.63;;;4.80;;
29728;SDS011;20055;51.498;11.960;2023-02-01T04:24:57;21.10;;;4.47;;
29728;SDS011;20055;51.498;11.960;2023-02-01T04:27:24;39.08;;;4.90;;
29728;SDS011;20055;51.498;11.960;2023-02-01T04:29:51;32.40;;;5.18;;
29728;SDS011;20055;51.498;11.960;2023-02-01T04:32:17;28.85;;;5.22;;
29728;SDS011;20055;51.498;11.960;2023-02-01T04:34:45;29.40;;;4.35;;
29728;SDS011;20055;51.498;11.960;2023-02-01T04:37:12;21.45;;;5.13;;
29728;SDS011;20055;51.498;11.960;2023-02-01T04:39:38;26.85;;;4.43;;
29728;SDS011;20055;51.498;11.960;2023-02-01T04:42:05;23.73;;;4.72;;
29728;SDS011;20055;51.498;11.960;2023-02-01T04:44:31;35.83;;;4.88;;
29728;SDS011;20055;51.498;11.960;2023-02-01T04:46:58;33.55;;;5.13;;
29728;SDS011;20055;51.498;11.960;2023-02-01T04:49:25;21.75;;;5.60;;
29728;SDS011;20055;51.498;11.960;2023-02-01T04:51:52;26.13;;;4.90;;
29728;SDS011;20055;51.498;11.960;2023-02-01T04:54:18;32.95;;;4.95;;
29728;SDS011;20055;51.498;11.960;2023-02-01T04:56:45;30.75;;;4.88;;
29728;SDS011;20055;51.498;11.960;2023-02-01T04:59:12;45.78;;;5.78;;
29728;SDS011;20055;51.498;11.960;2023-02-01T05:01:38;31.40;;;4.93;;
29728;SDS011;20055;51.498;11.960;2023-02-01T05:04:05;38.63;;;4.88;;
29728;SDS011;20055;51.498;11.960;2023-02-01T05:06:31;20.33;;;3.67;;
29728;SDS011;20055;51.498;11.960;2023-02-01T05:08:58;18.50;;;3.83;;
29728;SDS011;20055;51.498;11.960;2023-02-01T05:11:25;31.98;;;4.03;;
29728;SDS011;20055;51.498;11.960;2023-02-01T05:14:10;19.58;;;4.07;;
29728;SDS011;20055;51.498;11.960;2023-02-01T05:16:36;17.70;;;4.03;;
29728;SDS011;20055;51.498;11.960;2023-02-01T05:19:03;35.75;;;5.22;;
29728;SDS011;20055;51.498;11.960;2023-02-01T05:21:30;26.30;;;4.15;;
29728;SDS011;20055;51.498;11.960;2023-02-01T05:23:57;16.02;;;4.93;;
29728;SDS011;20055;51.498;11.960;2023-02-01T05:26:36;30.83;;;4.93;;
29728;SDS011;20055;51.498;11.960;2023-02-01T05:29:03;29.55;;;5.03;;
29728;SDS011;20055;51.498;11.960;2023-02-01T05:31:30;34.88;;;5.57;;
29728;SDS011;20055;51.498;11.960;2023-02-01T05:33:57;28.75;;;5.18;;
29728;SDS011;20055;51.498;11.960;2023-02-01T05:36:23;29.40;;;5.72;;
29728;SDS011;20055;51.498;11.960;2023-02-01T05:38:50;23.40;;;4.18;;
29728;SDS011;20055;51.498;11.960;2023-02-01T05:41:16;28.52;;;4.60;;
29728;SDS011;20055;51.498;11.960;2023-02-01T05:43:43;29.50;;;6.07;;
29728;SDS011;20055;51.498;11.960;2023-02-01T05:46:10;23.23;;;5.63;;
29728;SDS011;20055;51.498;11.960;2023-02-01T05:48:41;31.35;;;4.95;;
29728;SDS011;20055;51.498;11.960;2023-02-01T05:51:08;31.60;;;7.18;;
29728;SDS011;20055;51.498;11.960;2023-02-01T05:53:35;32.88;;;8.05;;
29728;SDS011;20055;51.498;11.960;2023-02-01T05:56:02;19.95;;;5.97;;
29728;SDS011;20055;51.498;11.960;2023-02-01T05:58:29;26.08;;;6.55;;
29728;SDS011;20055;51.498;11.960;2023-02-01T06:00:55;19.75;;;4.68;;
29728;SDS011;20055;51.498;11.960;2023-02-01T06:03:22;26.98;;;5.35;;
29728;SDS011;20055;51.498;11.960;2023-02-01T06:05:48;18.67;;;5.15;;
29728;SDS011;20055;51.498;11.960;2023-02-01T06:08:15;24.55;;;5.10;;
29728;SDS011;20055;51.498;11.960;2023-02-01T06:10:42;24.25;;;4.88;;
29728;SDS011;20055;51.498;11.960;2023-02-01T06:13:09;23.60;;;4.35;;
29728;SDS011;20055;51.498;11.960;2023-02-01T06:15:36;28.80;;;5.22;;
29728;SDS011;20055;51.498;11.960;2023-02-01T06:18:07;25.05;;;5.15;;
29728;SDS011;20055;51.498;11.960;2023-02-01T06:20:34;30.50;;;4.43;;
29728;SDS011;20055;51.498;11.960;2023-02-01T06:23:01;28.20;;;5.10;;
29728;SDS011;20055;51.498;11.960;2023-02-01T06:25:27;24.65;;;5.30;;
29728;SDS011;20055;51.498;11.960;2023-02-01T06:27:54;15.25;;;4.07;;
29728;SDS011;20055;51.498;11.960;2023-02-01T06:30:20;25.48;;;6.50;;
29728;SDS011;20055;51.498;11.960;2023-02-01T06:32:49;26.92;;;5.03;;
29728;SDS011;20055;51.498;11.960;2023-02-01T06:35:19;29.00;;;4.60;;
29728;SDS011;20055;51.498;11.960;2023-02-01T06:37:46;17.98;;;4.55;;
29728;SDS011;20055;51.498;11.960;2023-02-01T06:40:12;26.95;;;5.38;;
29728;SDS011;20055;51.498;11.960;2023-02-01T06:42:39;26.55;;;5.05;;
29728;SDS011;20055;51.498;11.960;2023-02-01T06:45:06;31.08;;;5.05;;
29728;SDS011;20055;51.498;11.960;2023-02-01T06:47:33;24.00;;;5.43;;
29728;SDS011;20055;51.498;11.960;2023-02-01T06:49:59;35.42;;;5.35;;
29728;SDS011;20055;51.498;11.960;2023-02-01T06:52:26;24.80;;;5.82;;
29728;SDS011;20055;51.498;11.960;2023-02-01T06:54:53;29.35;;;5.38;;
29728;SDS011;20055;51.498;11.960;2023-02-01T06:57:19;32.42;;;7.97;;
29728;SDS011;20055;51.498;11.960;2023-02-01T06:59:46;17.88;;;4.65;;
29728;SDS011;20055;51.498;11.960;2023-02-01T07:02:12;44.67;;;7.65;;
29728;SDS011;20055;51.498;11.960;2023-02-01T07:04:39;30.65;;;6.40;;
29728;SDS011;20055;51.498;11.960;2023-02-01T07:07:05;21.48;;;6.40;;
29728;SDS011;20055;51.498;11.960;2023-02-01T07:09:32;33.35;;;5.97;;
29728;SDS011;20055;51.498;11.960;2023-02-01T07:11:59;29.13;;;5.93;;
29728;SDS011;20055;51.498;11.960;2023-02-01T07:14:25;33.22;;;3.85;;
29728;SDS011;20055;51.498;11.960;2023-02-01T07:16:52;35.85;;;7.35;;
29728;SDS011;20055;51.498;11.960;2023-02-01T07:19:18;19.90;;;5.75;;
29728;SDS011;20055;51.498;11.960;2023-02-01T07:21:45;23.25;;;5.60;;
29728;SDS011;20055;51.498;11.960;2023-02-01T07:24:11;28.20;;;5.90;;
29728;SDS011;20055;51.498;11.960;2023-02-01T07:26:40;35.97;;;6.88;;
29728;SDS011;20055;51.498;11.960;2023-02-01T07:29:06;48.03;;;6.65;;
29728;SDS011;20055;51.498;11.960;2023-02-01T07:31:33;36.40;;;6.93;;
29728;SDS011;20055;51.498;11.960;2023-02-01T07:33:59;48.28;;;10.25;;
29728;SDS011;20055;51.498;11.960;2023-02-01T07:36:28;38.10;;;6.43;;
29728;SDS011;20055;51.498;11.960;2023-02-01T07:38:54;20.35;;;5.88;;
29728;SDS011;20055;51.498;11.960;2023-02-01T07:41:21;31.80;;;6.60;;
29728;SDS011;20055;51.498;11.960;2023-02-01T07:43:47;20.52;;;5.30;;
29728;SDS011;20055;51.498;11.960;2023-02-01T07:46:16;34.35;;;8.80;;
29728;SDS011;20055;51.498;11.960;2023-02-01T07:48:42;41.63;;;6.88;;
29728;SDS011;20055;51.498;11.960;2023-02-01T07:51:10;27.85;;;5.88;;
29728;SDS011;20055;51.498;11.960;2023-02-01T07:53:37;35.53;;;4.88;;
29728;SDS011;20055;51.498;11.960;2023-02-01T07:56:04;17.42;;;4.72;;
29728;SDS011;20055;51.498;11.960;2023-02-01T07:58:35;33.33;;;5.32;;
29728;SDS011;20055;51.498;11.960;2023-02-01T08:01:01;32.00;;;5.50;;
29728;SDS011;20055;51.498;11.960;2023-02-01T08:03:47;28.38;;;4.85;;
29728;SDS011;20055;51.498;11.960;2023-02-01T08:06:14;24.50;;;4.80;;
29728;SDS011;20055;51.498;11.960;2023-02-01T08:08:40;32.40;;;5.35;;
29728;SDS011;20055;51.498;11.960;2023-02-01T08:11:10;15.77;;;3.95;;
29728;SDS011;20055;51.498;11.960;2023-02-01T08:13:37;18.10;;;3.90;;
29728;SDS011;20055;51.498;11.960;2023-02-01T08:16:05;29.20;;;4.50;;
29728;SDS011;20055;51.498;11.960;2023-02-01T08:18:32;28.95;;;4.65;;
29728;SDS011;20055;51.498;11.960;2023-02-01T08:21:15;26.35;;;4.40;;
29728;SDS011;20055;51.498;11.960;2023-02-01T08:23:42;24.02;;;4.85;;
29728;SDS011;20055;51.498;11.960;2023-02-01T08:26:11;29.08;;;4.38;;
29728;SDS011;20055;51.498;11.960;2023-02-01T08:28:38;16.25;;;3.70;;
29728;SDS011;20055;51.498;11.960;2023-02-01T08:31:07;23.08;;;4.47;;
29728;SDS011;20055;51.498;11.960;2023-02-01T08:33:34;10.75;;;3.60;;
29728;SDS011;20055;51.498;11.960;2023-02-01T08:36:03;19.50;;;3.63;;
29728;SDS011;20055;51.498;11.960;2023-02-01T08:38:30;12.90;;;3.50;;
29728;SDS011;20055;51.498;11.960;2023-02-01T08:40:57;14.68;;;3.83;;
29728;SDS011;20055;51.498;11.960;2023-02-01T08:43:23;19.80;;;4.70;;
29728;SDS011;20055;51.498;11.960;2023-02-01T08:45:50;18.90;;;5.20;;
29728;SDS011;20055;51.498;11.960;2023-02-01T08:48:16;14.32;;;4.28;;
29728;SDS011;20055;51.498;11.960;2023-02-01T08:50:43;13.05;;;3.05;;
29728;SDS011;20055;51.498;11.960;2023-02-01T08:53:09;16.67;;;4.45;;
29728;SDS011;20055;51.498;11.960;2023-02-01T08:55:39;13.45;;;3.53;;
29728;SDS011;20055;51.498;11.960;2023-02-01T08:58:06;16.83;;;4.07;;
29728;SDS011;20055;51.498;11.960;2023-02-01T09:00:32;15.23;;;3.78;;
29728;SDS011;20055;51.498;11.960;2023-02-01T09:02:59;12.77;;;4.60;;
29728;SDS011;20055;51.498;11.960;2023-02-01T09:05:26;20.77;;;4.65;;
29728;SDS011;20055;51.498;11.960;2023-02-01T09:07:53;16.52;;;4.63;;
29728;SDS011;20055;51.498;11.960;2023-02-01T09:10:20;25.70;;;5.55;;
29728;SDS011;20055;51.498;11.960;2023-02-01T09:12:46;23.83;;;5.72;;
29728;SDS011;20055;51.498;11.960;2023-02-01T09:15:13;20.15;;;5.05;;
29728;SDS011;20055;51.498;11.960;2023-02-01T09:17:39;22.10;;;4.90;;
29728;SDS011;20055;51.498;11.960;2023-02-01T09:20:09;19.42;;;5.25;;
29728;SDS011;20055;51.498;11.960;2023-02-01T09:22:35;26.13;;;5.10;;
29728;SDS011;20055;51.498;11.960;2023-02-01T09:25:02;17.60;;;5.00;;
29728;SDS011;20055;51.498;11.960;2023-02-01T09:27:28;22.00;;;5.35;;
29728;SDS011;20055;51.498;11.960;2023-02-01T09:29:55;21.52;;;6.68;;
29728;SDS011;20055;51.498;11.960;2023-02-01T09:32:22;17.90;;;5.00;;
29728;SDS011;20055;51.498;11.960;2023-02-01T09:34:49;24.65;;;5.40;;
29728;SDS011;20055;51.498;11.960;2023-02-01T09:37:15;20.65;;;5.55;;
29728;SDS011;20055;51.498;11.960;2023-02-01T09:39:42;16.25;;;5.00;;
29728;SDS011;20055;51.498;11.960;2023-02-01T09:42:25;29.67;;;5.95;;
29728;SDS011;20055;51.498;11.960;2023-02-01T09:47:53;16.73;;;4.47;;
29728;SDS011;20055;51.498;11.960;2023-02-01T09:50:21;18.33;;;4.90;;
29728;SDS011;20055;51.498;11.960;2023-02-01T09:52:54;16.35;;;5.57;;
29728;SDS011;20055;51.498;11.960;2023-02-01T09:55:32;21.02;;;4.50;;
29728;SDS011;20055;51.498;11.960;2023-02-01T10:00:53;18.50;;;4.82;;
29728;SDS011;20055;51.498;11.960;2023-02-01T10:03:23;12.05;;;4.38;;
29728;SDS011;20055;51.498;11.960;2023-02-01T10:10:52;19.73;;;4.55;;
29728;SDS011;20055;51.498;11.960;2023-02-01T10:18:23;18.08;;;4.97;;
29728;SDS011;20055;51.498;11.960;2023-02-01T10:25:58;22.08;;;5.13;;
29728;SDS011;20055;51.498;11.960;2023-02-01T10:28:27;26.85;;;4.47;;
29728;SDS011;20055;51.498;11.960;2023-02-01T10:30:54;20.92;;;4.38;;
29728;SDS011;20055;51.498;11.960;2023-02-01T10:33:26;31.85;;;4.97;;
29728;SDS011;20055;51.498;11.960;2023-02-01T10:35:55;18.63;;;3.58;;
29728;SDS011;20055;51.498;11.960;2023-02-01T10:38:26;20.75;;;4.20;;
29728;SDS011;20055;51.498;11.960;2023-02-01T10:40:53;24.15;;;4.50;;
29728;SDS011;20055;51.498;11.960;2023-02-01T10:43:21;20.50;;;3.58;;
29728;SDS011;20055;51.498;11.960;2023-02-01T10:45:47;15.68;;;3.90;;
29728;SDS011;20055;51.498;11.960;2023-02-01T10:48:14;19.48;;;4.13;;
29728;SDS011;20055;51.498;11.960;2023-02-01T10:50:49;20.20;;;3.55;;
29728;SDS011;20055;51.498;11.960;2023-02-01T10:56:26;18.33;;;3.70;;
29728;SDS011;20055;51.498;11.960;2023-02-01T10:59:00;26.05;;;3.90;;
29728;SDS011;20055;51.498;11.960;2023-02-01T11:01:31;13.25;;;3.78;;
29728;SDS011;20055;51.498;11.960;2023-02-01T11:04:03;11.65;;;3.58;;
29728;SDS011;20055;51.498;11.960;2023-02-01T11:06:33;9.65;;;2.83;;
29728;SDS011;20055;51.498;11.960;2023-02-01T11:09:01;12.57;;;3.20;;
29728;SDS011;20055;51.498;11.960;2023-02-01T11:11:52;12.20;;;3.38;;
29728;SDS011;20055;51.498;11.960;2023-02-01T11:16:57;14.20;;;3.03;;
29728;SDS011;20055;51.498;11.960;2023-02-01T11:19:25;18.95;;;3.60;;
29728;SDS011;20055;51.498;11.960;2023-02-01T11:21:53;20.65;;;3.78;;
29728;SDS011;20055;51.498;11.960;2023-02-01T11:24:22;15.98;;;4.30;;
29728;SDS011;20055;51.498;11.960;2023-02-01T11:26:49;16.67;;;4.13;;
29728;SDS011;20055;51.498;11.960;2023-02-01T11:29:18;15.90;;;3.33;;
29728;SDS011;20055;51.498;11.960;2023-02-01T11:31:47;27.20;;;4.55;;
29728;SDS011;20055;51.498;11.960;2023-02-01T11:34:15;20.33;;;5.03;;
29728;SDS011;20055;51.498;11.960;2023-02-01T11:36:42;12.82;;;3.40;;
29728;SDS011;20055;51.498;11.960;2023-02-01T11:41:58;18.58;;;4.40;;
29728;SDS011;20055;51.498;11.960;2023-02-01T11:44:29;20.02;;;4.05;;
29728;SDS011;20055;51.498;11.960;2023-02-01T11:47:16;20.65;;;3.70;;
29728;SDS011;20055;51.498;11.960;2023-02-01T11:49:43;18.30;;;4.03;;
29728;SDS011;20055;51.498;11.960;2023-02-01T11:59:59;27.67;;;5.28;;
29728;SDS011;20055;51.498;11.960;2023-02-01T12:02:46;22.10;;;3.90;;
29728;SDS011;20055;51.498;11.960;2023-02-01T12:05:32;10.63;;;3.50;;
29728;SDS011;20055;51.498;11.960;2023-02-01T12:10:37;21.10;;;4.22;;
29728;SDS011;20055;51.498;11.960;2023-02-01T12:15:55;15.50;;;4.38;;
29728;SDS011;20055;51.498;11.960;2023-02-01T12:21:03;24.10;;;4.50;;
29728;SDS011;20055;51.498;11.960;2023-02-01T12:29:01;21.05;;;3.65;;
29728;SDS011;20055;51.498;11.960;2023-02-01T12:31:33;19.77;;;4.50;;
29728;SDS011;20055;51.498;11.960;2023-02-01T12:39:45;24.05;;;4.47;;
29728;SDS011;20055;51.498;11.960;2023-02-01T12:42:29;14.25;;;4.35;;
29728;SDS011;20055;51.498;11.960;2023-02-01T12:47:54;20.90;;;6.05;;
29728;SDS011;20055;51.498;11.960;2023-02-01T12:52:52;15.23;;;3.78;;
29728;SDS011;20055;51.498;11.960;2023-02-01T12:55:23;23.60;;;4.80;;
29728;SDS011;20055;51.498;11.960;2023-02-01T12:57:55;24.13;;;4.07;;
29728;SDS011;20055;51.498;11.960;2023-02-01T13:00:27;18.63;;;3.42;;
29728;SDS011;20055;51.498;11.960;2023-02-01T13:03:11;22.08;;;3.60;;
29728;SDS011;20055;51.498;11.960;2023-02-01T13:05:45;20.45;;;4.22;;
29728;SDS011;20055;51.498;11.960;2023-02-01T13:08:16;10.15;;;3.28;;
29728;SDS011;20055;51.498;11.960;2023-02-01T13:10:48;32.33;;;4.72;;
29728;SDS011;20055;51.498;11.960;2023-02-01T13:15:49;39.38;;;5.10;;
29728;SDS011;20055;51.498;11.960;2023-02-01T13:18:18;35.95;;;3.95;;
29728;SDS011;20055;51.498;11.960;2023-02-01T13:20:54;27.55;;;4.57;;
29728;SDS011;20055;51.498;11.960;2023-02-01T13:23:28;20.80;;;3.63;;
29728;SDS011;20055;51.498;11.960;2023-02-01T13:25:56;13.57;;;3.95;;
29728;SDS011;20055;51.498;11.960;2023-02-01T13:28:39;19.83;;;4.03;;
29728;SDS011;20055;51.498;11.960;2023-02-01T13:33:37;26.83;;;4.93;;
29728;SDS011;20055;51.498;11.960;2023-02-01T13:36:16;26.77;;;4.45;;
29728;SDS011;20055;51.498;11.960;2023-02-01T13:41:31;17.90;;;4.13;;
29728;SDS011;20055;51.498;11.960;2023-02-01T13:44:05;12.90;;;3.80;;
29728;SDS011;20055;51.498;11.960;2023-02-01T13:46:42;21.33;;;3.40;;
29728;SDS011;20055;51.498;11.960;2023-02-01T13:49:17;15.50;;;3.70;;
29728;SDS011;20055;51.498;11.960;2023-02-01T13:51:45;18.77;;;3.97;;
29728;SDS011;20055;51.498;11.960;2023-02-01T13:56:51;13.27;;;2.95;;
29728;SDS011;20055;51.498;11.960;2023-02-01T14:04:49;16.58;;;3.40;;
29728;SDS011;20055;51.498;11.960;2023-02-01T14:07:19;16.08;;;3.72;;
29728;SDS011;20055;51.498;11.960;2023-02-01T14:09:46;14.73;;;3.10;;
29728;SDS011;20055;51.498;11.960;2023-02-01T14:15:22;14.55;;;3.72;;
29728;SDS011;20055;51.498;11.960;2023-02-01T14:17:48;22.88;;;6.22;;
29728;SDS011;20055;51.498;11.960;2023-02-01T14:20:39;18.67;;;4.10;;
29728;SDS011;20055;51.498;11.960;2023-02-01T14:23:14;11.68;;;4.15;;
29728;SDS011;20055;51.498;11.960;2023-02-01T14:25:41;24.42;;;3.67;;
29728;SDS011;20055;51.498;11.960;2023-02-01T14:28:24;15.68;;;3.97;;
29728;SDS011;20055;51.498;11.960;2023-02-01T14:30:51;10.63;;;3.65;;
29728;SDS011;20055;51.498;11.960;2023-02-01T14:33:26;19.70;;;3.42;;
29728;SDS011;20055;51.498;11.960;2023-02-01T14:35:59;19.35;;;3.83;;
29728;SDS011;20055;51.498;11.960;2023-02-01T14:38:33;20.60;;;4.10;;
29728;SDS011;20055;51.498;11.960;2023-02-01T14:41:14;17.67;;;4.65;;
29728;SDS011;20055;51.498;11.960;2023-02-01T14:44:28;16.25;;;4.25;;
29728;SDS011;20055;51.498;11.960;2023-02-01T14:49:20;15.00;;;4.32;;
29728;SDS011;20055;51.498;11.960;2023-02-01T14:51:46;16.55;;;4.15;;
29728;SDS011;20055;51.498;11.960;2023-02-01T14:54:13;15.52;;;4.03;;
29728;SDS011;20055;51.498;11.960;2023-02-01T14:56:40;18.95;;;4.10;;
29728;SDS011;20055;51.498;11.960;2023-02-01T14:59:08;18.63;;;3.58;;
29728;SDS011;20055;51.498;11.960;2023-02-01T15:01:36;30.75;;;5.13;;
29728;SDS011;20055;51.498;11.960;2023-02-01T15:09:27;18.55;;;4.93;;
29728;SDS011;20055;51.498;11.960;2023-02-01T15:12:02;14.60;;;4.65;;
29728;SDS011;20055;51.498;11.960;2023-02-01T15:14:33;11.18;;;3.47;;
29728;SDS011;20055;51.498;11.960;2023-02-01T15:19:27;19.20;;;3.95;;
29728;SDS011;20055;51.498;11.960;2023-02-01T15:21:55;21.75;;;3.75;;
29728;SDS011;20055;51.498;11.960;2023-02-01T15:24:27;22.50;;;3.03;;
29728;SDS011;20055;51.498;11.960;2023-02-01T15:26:54;19.42;;;3.83;;
29728;SDS011;20055;51.498;11.960;2023-02-01T15:29:23;10.02;;;2.63;;
29728;SDS011;20055;51.498;11.960;2023-02-01T15:31:57;15.65;;;2.92;;
29728;SDS011;20055;51.498;11.960;2023-02-01T15:34:33;15.20;;;4.22;;
29728;SDS011;20055;51.498;11.960;2023-02-01T15:37:13;12.63;;;3.15;;
29728;SDS011;20055;51.498;11.960;2023-02-01T15:40:05;12.52;;;4.75;;
29728;SDS011;20055;51.498;11.960;2023-02-01T15:42:33;15.65;;;4.43;;
29728;SDS011;20055;51.498;11.960;2023-02-01T15:45:00;4.30;;;2.40;;
29728;SDS011;20055;51.498;11.960;2023-02-01T15:47:28;4.22;;;2.90;;
29728;SDS011;20055;51.498;11.960;2023-02-01T15:49:59;7.70;;;2.35;;
29728;SDS011;20055;51.498;11.960;2023-02-01T15:52:36;4.15;;;1.95;;
29728;SDS011;20055;51.498;11.960;2023-02-01T15:55:08;3.70;;;2.25;;
29728;SDS011;20055;51.498;11.960;2023-02-01T15:57:43;6.13;;;3.03;;
29728;SDS011;20055;51.498;11.960;2023-02-01T16:00:23;1.75;;;1.65;;
29728;SDS011;20055;51.498;11.960;2023-02-01T16:02:54;3.03;;;2.08;;
29728;SDS011;20055;51.498;11.960;2023-02-01T16:05:37;6.63;;;2.00;;
29728;SDS011;20055;51.498;11.960;2023-02-01T16:08:06;4.32;;;2.10;;
29728;SDS011;20055;51.498;11.960;2023-02-01T16:10:40;4.65;;;2.45;;
29728;SDS011;20055;51.498;11.960;2023-02-01T16:13:08;13.18;;;4.80;;
29728;SDS011;20055;51.498;11.960;2023-02-01T16:15:35;9.00;;;3.08;;
29728;SDS011;20055;51.498;11.960;2023-02-01T16:18:02;7.78;;;2.35;;
29728;SDS011;20055;51.498;11.960;2023-02-01T16:20:28;1.73;;;1.20;;
29728;SDS011;20055;51.498;11.960;2023-02-01T16:22:55;5.32;;;1.70;;
29728;SDS011;20055;51.498;11.960;2023-02-01T16:25:22;2.92;;;2.40;;
29728;SDS011;20055;51.498;11.960;2023-02-01T16:27:48;2.75;;;2.00;;
29728;SDS011;20055;51.498;11.960;2023-02-01T16:30:15;5.25;;;2.97;;
29728;SDS011;20055;51.498;11.960;2023-02-01T16:32:49;2.97;;;1.40;;
29728;SDS011;20055;51.498;11.960;2023-02-01T16:35:19;6.55;;;1.77;;
29728;SDS011;20055;51.498;11.960;2023-02-01T16:37:48;1.52;;;1.40;;